sensor_id;sensor_type;location;lat;lon;timestamp;temperature;humidity
13970;DHT22;7057;49.984;8.404;2022-10-22T00:01:11;15.30;99.90
13970;DHT22;7057;49.984;8.404;2022-10-22T00:03:38;15.30;99.90
13970;DHT22;7057;49.984;8.404;2022-10-22T00:06:06;15.30;99.90
13970;DHT22;7057;49.984;8.404;2022-10-22T00:08:33;15.30;99.90
13970;DHT22;7057;49.984;8.404;2022-10-22T00:11:07;15.30;99.90
13970;DHT22;7057;49.984;8.404;2022-10-22T00:13:34;15.30;99.90
13970;DHT22;7057;49.984;8.404;2022-10-22T00:16:01;15.20;99.90
13970;DHT22;7057;49.984;8.404;2022-10-22T00:18:30;15.20;99.90
13970;DHT22;7057;49.984;8.404;2022-10-22T00:20:57;15.20;99.90
13970;DHT22;7057;49.984;8.404;2022-10-22T00:23:25;15.30;99.90
13970;DHT22;7057;49.984;8.404;2022-10-22T00:25:52;15.20;99.90
13970;DHT22;7057;49.984;8.404;2022-10-22T00:28:19;15.20;99.90
13970;DHT22;7057;49.984;8.404;2022-10-22T00:30:47;15.20;99.90
13970;DHT22;7057;49.984;8.404;2022-10-22T00:33:14;15.30;99.90
13970;DHT22;7057;49.984;8.404;2022-10-22T00:35:42;15.30;99.90
13970;DHT22;7057;49.984;8.404;2022-10-22T00:38:10;15.20;99.90
13970;DHT22;7057;49.984;8.404;2022-10-22T00:40:37;15.20;99.90
13970;DHT22;7057;49.984;8.404;2022-10-22T00:43:04;15.20;99.90
13970;DHT22;7057;49.984;8.404;2022-10-22T00:45:31;15.20;99.90
13970;DHT22;7057;49.984;8.404;2022-10-22T00:48:01;15.20;99.90
13970;DHT22;7057;49.984;8.404;2022-10-22T00:50:32;15.20;99.90
13970;DHT22;7057;49.984;8.404;2022-10-22T00:53:03;15.20;99.90
13970;DHT22;7057;49.984;8.404;2022-10-22T00:55:32;15.10;99.90
13970;DHT22;7057;49.984;8.404;2022-10-22T00:58:00;15.10;99.90
13970;DHT22;7057;49.984;8.404;2022-10-22T01:00:28;15.10;99.90
13970;DHT22;7057;49.984;8.404;2022-10-22T01:02:56;15.20;99.90
13970;DHT22;7057;49.984;8.404;2022-10-22T01:05:26;15.20;99.90
13970;DHT22;7057;49.984;8.404;2022-10-22T01:07:54;15.20;99.90
13970;DHT22;7057;49.984;8.404;2022-10-22T01:10:34;15.20;99.90
13970;DHT22;7057;49.984;8.404;2022-10-22T01:13:12;15.10;99.90
13970;DHT22;7057;49.984;8.404;2022-10-22T01:15:47;15.10;99.90
13970;DHT22;7057;49.984;8.404;2022-10-22T01:18:20;15.10;99.90
13970;DHT22;7057;49.984;8.404;2022-10-22T01:20:57;15.10;99.90
13970;DHT22;7057;49.984;8.404;2022-10-22T01:26:41;15.10;99.90
13970;DHT22;7057;49.984;8.404;2022-10-22T01:29:13;15.00;99.90
13970;DHT22;7057;49.984;8.404;2022-10-22T01:31:45;15.00;99.90
13970;DHT22;7057;49.984;8.404;2022-10-22T01:34:15;14.90;99.90
13970;DHT22;7057;49.984;8.404;2022-10-22T01:36:44;14.90;99.90
13970;DHT22;7057;49.984;8.404;2022-10-22T01:39:14;14.90;99.90
13970;DHT22;7057;49.984;8.404;2022-10-22T01:41:43;14.90;99.90
13970;DHT22;7057;49.984;8.404;2022-10-22T01:44:24;14.90;99.90
13970;DHT22;7057;49.984;8.404;2022-10-22T01:46:56;14.90;99.90
13970;DHT22;7057;49.984;8.404;2022-10-22T01:49:29;15.10;99.90
13970;DHT22;7057;49.984;8.404;2022-10-22T01:52:04;14.80;99.90
13970;DHT22;7057;49.984;8.404;2022-10-22T01:54:40;14.80;99.90
13970;DHT22;7057;49.984;8.404;2022-10-22T01:57:16;14.80;99.90
13970;DHT22;7057;49.984;8.404;2022-10-22T01:59:52;14.80;99.90
13970;DHT22;7057;49.984;8.404;2022-10-22T02:02:29;14.90;99.90
13970;DHT22;7057;49.984;8.404;2022-10-22T02:05:04;14.90;99.90
13970;DHT22;7057;49.984;8.404;2022-10-22T02:07:36;14.90;99.90
13970;DHT22;7057;49.984;8.404;2022-10-22T02:10:06;14.80;99.90
13970;DHT22;7057;49.984;8.404;2022-10-22T02:12:34;14.80;99.90
13970;DHT22;7057;49.984;8.404;2022-10-22T02:15:05;14.80;99.90
13970;DHT22;7057;49.984;8.404;2022-10-22T02:17:34;14.80;99.90
13970;DHT22;7057;49.984;8.404;2022-10-22T02:20:06;14.80;99.90
13970;DHT22;7057;49.984;8.404;2022-10-22T02:22:34;14.80;99.90
13970;DHT22;7057;49.984;8.404;2022-10-22T02:25:02;14.80;99.90
13970;DHT22;7057;49.984;8.404;2022-10-22T02:27:32;14.80;99.90
13970;DHT22;7057;49.984;8.404;2022-10-22T02:30:05;14.80;99.90
13970;DHT22;7057;49.984;8.404;2022-10-22T02:32:38;14.80;99.90
13970;DHT22;7057;49.984;8.404;2022-10-22T02:35:08;14.80;99.90
13970;DHT22;7057;49.984;8.404;2022-10-22T02:37:37;14.70;99.90
13970;DHT22;7057;49.984;8.404;2022-10-22T02:40:06;14.70;99.90
13970;DHT22;7057;49.984;8.404;2022-10-22T02:42:34;14.70;99.90
13970;DHT22;7057;49.984;8.404;2022-10-22T02:45:02;14.70;99.90
13970;DHT22;7057;49.984;8.404;2022-10-22T02:47:31;14.80;99.90
13970;DHT22;7057;49.984;8.404;2022-10-22T02:49:58;14.80;99.90
13970;DHT22;7057;49.984;8.404;2022-10-22T02:52:25;14.80;99.90
13970;DHT22;7057;49.984;8.404;2022-10-22T02:54:52;14.80;99.90
13970;DHT22;7057;49.984;8.404;2022-10-22T02:57:19;14.80;99.90
13970;DHT22;7057;49.984;8.404;2022-10-22T02:59:47;14.80;99.90
13970;DHT22;7057;49.984;8.404;2022-10-22T03:02:14;14.80;99.90
13970;DHT22;7057;49.984;8.404;2022-10-22T03:04:42;14.80;99.90
13970;DHT22;7057;49.984;8.404;2022-10-22T03:07:09;14.90;99.90
13970;DHT22;7057;49.984;8.404;2022-10-22T03:09:37;14.90;99.90
13970;DHT22;7057;49.984;8.404;2022-10-22T03:12:04;14.90;99.90
13970;DHT22;7057;49.984;8.404;2022-10-22T03:14:33;14.90;99.90
13970;DHT22;7057;49.984;8.404;2022-10-22T03:17:01;14.80;99.90
13970;DHT22;7057;49.984;8.404;2022-10-22T03:19:28;14.80;99.90
13970;DHT22;7057;49.984;8.404;2022-10-22T03:21:58;14.70;99.90
13970;DHT22;7057;49.984;8.404;2022-10-22T03:24:30;14.80;99.90
13970;DHT22;7057;49.984;8.404;2022-10-22T03:26:57;14.70;99.90
13970;DHT22;7057;49.984;8.404;2022-10-22T03:29:26;14.80;99.90
13970;DHT22;7057;49.984;8.404;2022-10-22T03:31:54;14.80;99.90
13970;DHT22;7057;49.984;8.404;2022-10-22T03:34:21;14.80;99.90
13970;DHT22;7057;49.984;8.404;2022-10-22T03:36:48;14.80;99.90
13970;DHT22;7057;49.984;8.404;2022-10-22T03:39:19;14.80;99.90
13970;DHT22;7057;49.984;8.404;2022-10-22T03:41:48;14.80;99.90
13970;DHT22;7057;49.984;8.404;2022-10-22T03:44:16;14.80;99.90
13970;DHT22;7057;49.984;8.404;2022-10-22T03:46:44;14.80;99.90
13970;DHT22;7057;49.984;8.404;2022-10-22T03:49:11;14.80;99.90
13970;DHT22;7057;49.984;8.404;2022-10-22T03:51:38;14.80;99.90
13970;DHT22;7057;49.984;8.404;2022-10-22T03:54:05;14.80;99.90
13970;DHT22;7057;49.984;8.404;2022-10-22T03:56:34;14.80;99.90
13970;DHT22;7057;49.984;8.404;2022-10-22T03:59:01;14.80;99.90
13970;DHT22;7057;49.984;8.404;2022-10-22T04:01:29;14.80;99.90
13970;DHT22;7057;49.984;8.404;2022-10-22T04:03:57;14.80;99.90
13970;DHT22;7057;49.984;8.404;2022-10-22T04:06:24;14.80;99.90
13970;DHT22;7057;49.984;8.404;2022-10-22T04:08:51;14.80;99.90
13970;DHT22;7057;49.984;8.404;2022-10-22T04:11:18;14.80;99.90
13970;DHT22;7057;49.984;8.404;2022-10-22T04:13:47;14.80;99.90
13970;DHT22;7057;49.984;8.404;2022-10-22T04:16:17;14.80;99.90
13970;DHT22;7057;49.984;8.404;2022-10-22T04:18:46;14.80;99.90
13970;DHT22;7057;49.984;8.404;2022-10-22T04:21:15;14.80;99.90
13970;DHT22;7057;49.984;8.404;2022-10-22T04:23:44;14.80;99.90
13970;DHT22;7057;49.984;8.404;2022-10-22T04:26:12;14.80;99.90
13970;DHT22;7057;49.984;8.404;2022-10-22T04:28:39;14.80;99.90
13970;DHT22;7057;49.984;8.404;2022-10-22T04:31:09;14.80;99.90
13970;DHT22;7057;49.984;8.404;2022-10-22T04:33:37;14.80;99.90
13970;DHT22;7057;49.984;8.404;2022-10-22T04:36:06;14.80;99.90
13970;DHT22;7057;49.984;8.404;2022-10-22T04:38:34;14.80;99.90
13970;DHT22;7057;49.984;8.404;2022-10-22T04:41:08;14.70;99.90
13970;DHT22;7057;49.984;8.404;2022-10-22T04:43:36;14.80;99.90
13970;DHT22;7057;49.984;8.404;2022-10-22T04:46:03;14.80;99.90
13970;DHT22;7057;49.984;8.404;2022-10-22T04:48:32;14.80;99.90
13970;DHT22;7057;49.984;8.404;2022-10-22T04:50:59;14.70;99.90
13970;DHT22;7057;49.984;8.404;2022-10-22T04:53:26;14.80;99.90
13970;DHT22;7057;49.984;8.404;2022-10-22T04:55:53;14.70;99.90
13970;DHT22;7057;49.984;8.404;2022-10-22T04:58:20;14.70;99.90
13970;DHT22;7057;49.984;8.404;2022-10-22T05:00:48;14.70;99.90
13970;DHT22;7057;49.984;8.404;2022-10-22T05:03:15;14.70;99.90
13970;DHT22;7057;49.984;8.404;2022-10-22T05:05:43;14.60;99.90
13970;DHT22;7057;49.984;8.404;2022-10-22T05:08:10;14.70;99.90
13970;DHT22;7057;49.984;8.404;2022-10-22T05:10:37;14.70;99.90
13970;DHT22;7057;49.984;8.404;2022-10-22T05:13:05;14.60;99.90
13970;DHT22;7057;49.984;8.404;2022-10-22T05:15:32;14.50;99.90
13970;DHT22;7057;49.984;8.404;2022-10-22T05:17:59;14.50;99.90
13970;DHT22;7057;49.984;8.404;2022-10-22T05:20:26;14.40;99.90
13970;DHT22;7057;49.984;8.404;2022-10-22T05:22:55;14.50;99.90
13970;DHT22;7057;49.984;8.404;2022-10-22T05:25:22;14.40;99.90
13970;DHT22;7057;49.984;8.404;2022-10-22T05:27:49;14.50;99.90
13970;DHT22;7057;49.984;8.404;2022-10-22T05:30:16;14.50;99.90
13970;DHT22;7057;49.984;8.404;2022-10-22T05:32:44;14.50;99.90
13970;DHT22;7057;49.984;8.404;2022-10-22T05:35:11;14.50;99.90
13970;DHT22;7057;49.984;8.404;2022-10-22T05:37:38;14.50;99.90
13970;DHT22;7057;49.984;8.404;2022-10-22T05:40:07;14.50;99.90
13970;DHT22;7057;49.984;8.404;2022-10-22T05:42:35;14.50;99.90
13970;DHT22;7057;49.984;8.404;2022-10-22T05:45:02;14.50;99.90
13970;DHT22;7057;49.984;8.404;2022-10-22T05:47:30;14.50;99.90
13970;DHT22;7057;49.984;8.404;2022-10-22T05:49:57;14.50;99.90
13970;DHT22;7057;49.984;8.404;2022-10-22T05:52:24;14.50;99.90
13970;DHT22;7057;49.984;8.404;2022-10-22T05:54:51;14.50;99.90
13970;DHT22;7057;49.984;8.404;2022-10-22T05:57:20;14.50;99.90
13970;DHT22;7057;49.984;8.404;2022-10-22T05:59:47;14.40;99.90
13970;DHT22;7057;49.984;8.404;2022-10-22T06:02:14;14.40;99.90
13970;DHT22;7057;49.984;8.404;2022-10-22T06:04:41;14.40;99.90
13970;DHT22;7057;49.984;8.404;2022-10-22T06:07:12;14.30;99.90
13970;DHT22;7057;49.984;8.404;2022-10-22T06:09:41;14.30;99.90
13970;DHT22;7057;49.984;8.404;2022-10-22T06:12:08;14.30;99.90
13970;DHT22;7057;49.984;8.404;2022-10-22T06:14:39;14.20;99.90
13970;DHT22;7057;49.984;8.404;2022-10-22T06:17:07;14.20;99.90
13970;DHT22;7057;49.984;8.404;2022-10-22T06:19:35;14.20;99.90
13970;DHT22;7057;49.984;8.404;2022-10-22T06:22:02;14.10;99.90
13970;DHT22;7057;49.984;8.404;2022-10-22T06:24:30;14.10;99.90
13970;DHT22;7057;49.984;8.404;2022-10-22T06:26:57;14.00;99.90
13970;DHT22;7057;49.984;8.404;2022-10-22T06:29:25;14.00;99.90
13970;DHT22;7057;49.984;8.404;2022-10-22T06:31:53;14.00;99.90
13970;DHT22;7057;49.984;8.404;2022-10-22T06:34:20;14.00;99.90
13970;DHT22;7057;49.984;8.404;2022-10-22T06:36:47;14.00;99.90
13970;DHT22;7057;49.984;8.404;2022-10-22T06:39:17;13.90;99.90
13970;DHT22;7057;49.984;8.404;2022-10-22T06:41:44;14.00;99.90
13970;DHT22;7057;49.984;8.404;2022-10-22T06:44:13;14.00;99.90
13970;DHT22;7057;49.984;8.404;2022-10-22T06:46:40;14.00;99.90
13970;DHT22;7057;49.984;8.404;2022-10-22T06:49:12;13.90;99.90
13970;DHT22;7057;49.984;8.404;2022-10-22T06:51:40;13.90;99.90
13970;DHT22;7057;49.984;8.404;2022-10-22T06:54:07;13.90;99.90
13970;DHT22;7057;49.984;8.404;2022-10-22T06:56:34;13.90;99.90
13970;DHT22;7057;49.984;8.404;2022-10-22T06:59:02;13.90;99.90
13970;DHT22;7057;49.984;8.404;2022-10-22T07:01:32;13.90;99.90
13970;DHT22;7057;49.984;8.404;2022-10-22T07:04:00;13.90;99.90
13970;DHT22;7057;49.984;8.404;2022-10-22T07:06:29;13.80;99.90
13970;DHT22;7057;49.984;8.404;2022-10-22T07:08:57;13.80;99.90
13970;DHT22;7057;49.984;8.404;2022-10-22T07:11:26;13.90;99.90
13970;DHT22;7057;49.984;8.404;2022-10-22T07:13:55;13.90;99.90
13970;DHT22;7057;49.984;8.404;2022-10-22T07:16:23;14.00;99.90
13970;DHT22;7057;49.984;8.404;2022-10-22T07:18:50;14.00;99.90
13970;DHT22;7057;49.984;8.404;2022-10-22T07:21:18;14.00;99.90
13970;DHT22;7057;49.984;8.404;2022-10-22T07:23:48;14.10;99.90
13970;DHT22;7057;49.984;8.404;2022-10-22T07:26:16;14.10;99.90
13970;DHT22;7057;49.984;8.404;2022-10-22T07:28:45;14.20;99.90
13970;DHT22;7057;49.984;8.404;2022-10-22T07:31:16;14.20;99.90
13970;DHT22;7057;49.984;8.404;2022-10-22T07:33:44;14.20;99.90
13970;DHT22;7057;49.984;8.404;2022-10-22T07:36:13;14.30;99.90
13970;DHT22;7057;49.984;8.404;2022-10-22T07:38:42;14.40;99.90
13970;DHT22;7057;49.984;8.404;2022-10-22T07:41:12;14.40;99.90
13970;DHT22;7057;49.984;8.404;2022-10-22T07:43:39;14.50;99.90
13970;DHT22;7057;49.984;8.404;2022-10-22T07:46:07;14.50;99.90
13970;DHT22;7057;49.984;8.404;2022-10-22T07:48:34;14.60;99.90
13970;DHT22;7057;49.984;8.404;2022-10-22T07:51:02;14.70;99.90
13970;DHT22;7057;49.984;8.404;2022-10-22T07:53:29;14.80;99.90
13970;DHT22;7057;49.984;8.404;2022-10-22T07:55:56;14.90;99.90
13970;DHT22;7057;49.984;8.404;2022-10-22T07:58:25;15.00;99.90
13970;DHT22;7057;49.984;8.404;2022-10-22T08:00:54;15.10;99.90
13970;DHT22;7057;49.984;8.404;2022-10-22T08:03:22;15.10;99.90
13970;DHT22;7057;49.984;8.404;2022-10-22T08:05:50;15.10;99.90
13970;DHT22;7057;49.984;8.404;2022-10-22T08:08:18;15.00;99.90
13970;DHT22;7057;49.984;8.404;2022-10-22T08:10:45;15.10;99.90
13970;DHT22;7057;49.984;8.404;2022-10-22T08:13:13;15.20;99.90
13970;DHT22;7057;49.984;8.404;2022-10-22T08:15:42;15.30;99.90
13970;DHT22;7057;49.984;8.404;2022-10-22T08:18:11;15.40;99.90
13970;DHT22;7057;49.984;8.404;2022-10-22T08:20:39;15.50;99.90
13970;DHT22;7057;49.984;8.404;2022-10-22T08:23:07;15.60;99.90
13970;DHT22;7057;49.984;8.404;2022-10-22T08:25:35;15.60;99.90
13970;DHT22;7057;49.984;8.404;2022-10-22T08:28:02;15.70;99.90
13970;DHT22;7057;49.984;8.404;2022-10-22T08:30:29;15.80;99.90
13970;DHT22;7057;49.984;8.404;2022-10-22T08:33:00;15.70;99.90
13970;DHT22;7057;49.984;8.404;2022-10-22T08:35:27;15.70;99.90
13970;DHT22;7057;49.984;8.404;2022-10-22T08:37:54;15.80;99.90
13970;DHT22;7057;49.984;8.404;2022-10-22T08:40:25;16.00;99.90
13970;DHT22;7057;49.984;8.404;2022-10-22T08:43:25;16.10;99.90
13970;DHT22;7057;49.984;8.404;2022-10-22T08:46:05;16.00;99.90
13970;DHT22;7057;49.984;8.404;2022-10-22T08:48:42;16.10;99.90
13970;DHT22;7057;49.984;8.404;2022-10-22T08:51:14;15.90;99.90
13970;DHT22;7057;49.984;8.404;2022-10-22T08:54:02;15.90;99.90
13970;DHT22;7057;49.984;8.404;2022-10-22T08:56:33;15.80;99.90
13970;DHT22;7057;49.984;8.404;2022-10-22T08:59:06;15.70;99.90
13970;DHT22;7057;49.984;8.404;2022-10-22T09:01:39;15.80;99.90
13970;DHT22;7057;49.984;8.404;2022-10-22T09:04:14;15.90;99.90
13970;DHT22;7057;49.984;8.404;2022-10-22T09:06:44;16.00;99.90
13970;DHT22;7057;49.984;8.404;2022-10-22T09:09:14;16.10;99.90
13970;DHT22;7057;49.984;8.404;2022-10-22T09:11:44;16.20;99.90
13970;DHT22;7057;49.984;8.404;2022-10-22T09:14:13;16.40;99.90
13970;DHT22;7057;49.984;8.404;2022-10-22T09:16:56;16.50;99.90
13970;DHT22;7057;49.984;8.404;2022-10-22T09:19:32;16.70;99.90
13970;DHT22;7057;49.984;8.404;2022-10-22T09:22:12;16.80;99.90
13970;DHT22;7057;49.984;8.404;2022-10-22T09:24:45;17.00;99.90
13970;DHT22;7057;49.984;8.404;2022-10-22T09:27:15;17.10;99.90
13970;DHT22;7057;49.984;8.404;2022-10-22T09:29:44;16.90;99.90
13970;DHT22;7057;49.984;8.404;2022-10-22T09:32:11;16.90;99.90
13970;DHT22;7057;49.984;8.404;2022-10-22T09:34:43;16.80;99.90
13970;DHT22;7057;49.984;8.404;2022-10-22T09:37:10;16.80;99.90
13970;DHT22;7057;49.984;8.404;2022-10-22T09:39:40;17.00;99.90
13970;DHT22;7057;49.984;8.404;2022-10-22T09:42:07;17.00;99.90
13970;DHT22;7057;49.984;8.404;2022-10-22T09:44:37;17.10;99.90
13970;DHT22;7057;49.984;8.404;2022-10-22T09:47:05;17.00;99.90
13970;DHT22;7057;49.984;8.404;2022-10-22T09:49:34;16.90;99.90
13970;DHT22;7057;49.984;8.404;2022-10-22T09:52:26;16.90;99.90
13970;DHT22;7057;49.984;8.404;2022-10-22T09:54:54;16.90;99.90
13970;DHT22;7057;49.984;8.404;2022-10-22T09:57:24;17.10;99.90
13970;DHT22;7057;49.984;8.404;2022-10-22T09:59:54;17.30;99.90
13970;DHT22;7057;49.984;8.404;2022-10-22T10:02:25;17.40;99.90
13970;DHT22;7057;49.984;8.404;2022-10-22T10:04:55;17.60;99.90
13970;DHT22;7057;49.984;8.404;2022-10-22T10:07:26;17.80;99.90
13970;DHT22;7057;49.984;8.404;2022-10-22T10:09:53;17.80;99.90
13970;DHT22;7057;49.984;8.404;2022-10-22T10:12:28;17.80;99.90
13970;DHT22;7057;49.984;8.404;2022-10-22T10:15:03;17.80;99.90
13970;DHT22;7057;49.984;8.404;2022-10-22T10:17:41;17.90;99.90
13970;DHT22;7057;49.984;8.404;2022-10-22T10:20:23;18.00;99.90
13970;DHT22;7057;49.984;8.404;2022-10-22T10:23:02;18.20;99.90
13970;DHT22;7057;49.984;8.404;2022-10-22T10:25:41;18.20;99.90
13970;DHT22;7057;49.984;8.404;2022-10-22T10:28:30;18.40;99.90
13970;DHT22;7057;49.984;8.404;2022-10-22T10:31:04;18.30;99.90
13970;DHT22;7057;49.984;8.404;2022-10-22T10:33:40;18.40;99.90
13970;DHT22;7057;49.984;8.404;2022-10-22T10:36:16;18.50;99.90
13970;DHT22;7057;49.984;8.404;2022-10-22T10:38:55;18.70;99.90
13970;DHT22;7057;49.984;8.404;2022-10-22T10:41:31;18.80;99.90
13970;DHT22;7057;49.984;8.404;2022-10-22T10:44:21;18.70;99.90
13970;DHT22;7057;49.984;8.404;2022-10-22T10:46:59;18.40;99.90
13970;DHT22;7057;49.984;8.404;2022-10-22T10:49:34;18.30;99.90
13970;DHT22;7057;49.984;8.404;2022-10-22T10:52:08;18.20;99.90
13970;DHT22;7057;49.984;8.404;2022-10-22T10:54:45;18.30;99.90
13970;DHT22;7057;49.984;8.404;2022-10-22T10:57:23;18.30;99.90
13970;DHT22;7057;49.984;8.404;2022-10-22T11:00:03;18.30;99.90
13970;DHT22;7057;49.984;8.404;2022-10-22T11:02:49;18.30;99.90
13970;DHT22;7057;49.984;8.404;2022-10-22T11:05:29;18.40;99.90
13970;DHT22;7057;49.984;8.404;2022-10-22T11:08:01;18.60;99.90
13970;DHT22;7057;49.984;8.404;2022-10-22T11:10:34;18.60;99.90
13970;DHT22;7057;49.984;8.404;2022-10-22T11:13:07;18.70;99.90
13970;DHT22;7057;49.984;8.404;2022-10-22T11:15:38;18.80;99.90
13970;DHT22;7057;49.984;8.404;2022-10-22T11:18:13;18.90;99.90
13970;DHT22;7057;49.984;8.404;2022-10-22T11:21:08;19.10;99.90
13970;DHT22;7057;49.984;8.404;2022-10-22T11:23:41;19.20;99.90
13970;DHT22;7057;49.984;8.404;2022-10-22T11:26:16;19.00;99.90
13970;DHT22;7057;49.984;8.404;2022-10-22T11:28:48;19.20;99.90
13970;DHT22;7057;49.984;8.404;2022-10-22T11:31:17;19.30;99.90
13970;DHT22;7057;49.984;8.404;2022-10-22T11:33:50;19.10;99.90
13970;DHT22;7057;49.984;8.404;2022-10-22T11:36:21;19.10;99.90
13970;DHT22;7057;49.984;8.404;2022-10-22T11:38:50;19.30;99.90
13970;DHT22;7057;49.984;8.404;2022-10-22T11:41:23;19.30;99.90
13970;DHT22;7057;49.984;8.404;2022-10-22T11:43:57;19.10;99.90
13970;DHT22;7057;49.984;8.404;2022-10-22T11:46:29;19.30;99.90
13970;DHT22;7057;49.984;8.404;2022-10-22T11:49:03;19.40;99.90
13970;DHT22;7057;49.984;8.404;2022-10-22T11:51:35;19.50;99.90
13970;DHT22;7057;49.984;8.404;2022-10-22T11:54:25;19.30;99.90
13970;DHT22;7057;49.984;8.404;2022-10-22T11:57:16;19.30;99.90
13970;DHT22;7057;49.984;8.404;2022-10-22T11:59:48;19.40;99.90
13970;DHT22;7057;49.984;8.404;2022-10-22T12:02:38;19.60;99.90
13970;DHT22;7057;49.984;8.404;2022-10-22T12:08:24;20.00;99.90
13970;DHT22;7057;49.984;8.404;2022-10-22T12:11:03;20.30;99.90
13970;DHT22;7057;49.984;8.404;2022-10-22T12:13:49;20.50;99.90
13970;DHT22;7057;49.984;8.404;2022-10-22T12:16:19;20.30;99.90
13970;DHT22;7057;49.984;8.404;2022-10-22T12:18:48;20.00;99.90
13970;DHT22;7057;49.984;8.404;2022-10-22T12:21:21;20.10;99.90
13970;DHT22;7057;49.984;8.404;2022-10-22T12:23:50;20.20;99.90
13970;DHT22;7057;49.984;8.404;2022-10-22T12:26:23;20.40;99.90
13970;DHT22;7057;49.984;8.404;2022-10-22T12:28:56;20.50;99.90
13970;DHT22;7057;49.984;8.404;2022-10-22T12:31:23;20.70;99.90
13970;DHT22;7057;49.984;8.404;2022-10-22T12:33:57;20.80;99.90
13970;DHT22;7057;49.984;8.404;2022-10-22T12:36:25;20.50;99.90
13970;DHT22;7057;49.984;8.404;2022-10-22T12:38:53;20.40;99.90
13970;DHT22;7057;49.984;8.404;2022-10-22T12:41:21;20.40;99.90
13970;DHT22;7057;49.984;8.404;2022-10-22T12:43:59;20.20;99.90
13970;DHT22;7057;49.984;8.404;2022-10-22T12:46:27;20.20;99.90
13970;DHT22;7057;49.984;8.404;2022-10-22T12:48:59;20.30;99.90
13970;DHT22;7057;49.984;8.404;2022-10-22T12:51:26;20.40;99.90
13970;DHT22;7057;49.984;8.404;2022-10-22T12:53:56;20.60;99.90
13970;DHT22;7057;49.984;8.404;2022-10-22T12:56:26;20.60;99.90
13970;DHT22;7057;49.984;8.404;2022-10-22T12:58:56;20.50;99.90
13970;DHT22;7057;49.984;8.404;2022-10-22T13:01:27;20.50;99.90
13970;DHT22;7057;49.984;8.404;2022-10-22T13:04:04;20.40;99.90
13970;DHT22;7057;49.984;8.404;2022-10-22T13:06:33;20.30;99.90
13970;DHT22;7057;49.984;8.404;2022-10-22T13:09:13;20.10;99.90
13970;DHT22;7057;49.984;8.404;2022-10-22T13:11:50;20.10;99.90
13970;DHT22;7057;49.984;8.404;2022-10-22T13:14:25;20.00;99.90
13970;DHT22;7057;49.984;8.404;2022-10-22T13:17:08;20.00;99.90
13970;DHT22;7057;49.984;8.404;2022-10-22T13:19:37;20.00;99.90
13970;DHT22;7057;49.984;8.404;2022-10-22T13:22:20;20.10;99.90
13970;DHT22;7057;49.984;8.404;2022-10-22T13:24:49;20.10;99.90
13970;DHT22;7057;49.984;8.404;2022-10-22T13:27:16;20.10;99.90
13970;DHT22;7057;49.984;8.404;2022-10-22T13:29:43;20.20;99.90
13970;DHT22;7057;49.984;8.404;2022-10-22T13:32:25;20.40;99.90
13970;DHT22;7057;49.984;8.404;2022-10-22T13:34:54;20.50;99.90
13970;DHT22;7057;49.984;8.404;2022-10-22T13:37:22;20.60;99.90
13970;DHT22;7057;49.984;8.404;2022-10-22T13:39:49;20.60;99.90
13970;DHT22;7057;49.984;8.404;2022-10-22T13:42:16;20.60;99.90
13970;DHT22;7057;49.984;8.404;2022-10-22T13:44:44;20.60;99.90
13970;DHT22;7057;49.984;8.404;2022-10-22T13:47:28;20.50;99.90
13970;DHT22;7057;49.984;8.404;2022-10-22T13:49:57;20.40;99.90
13970;DHT22;7057;49.984;8.404;2022-10-22T13:52:29;20.50;99.90
13970;DHT22;7057;49.984;8.404;2022-10-22T13:54:57;20.30;99.90
13970;DHT22;7057;49.984;8.404;2022-10-22T13:57:24;20.30;99.90
13970;DHT22;7057;49.984;8.404;2022-10-22T13:59:51;20.40;99.90
13970;DHT22;7057;49.984;8.404;2022-10-22T14:02:19;20.40;99.90
13970;DHT22;7057;49.984;8.404;2022-10-22T14:04:50;20.20;99.90
13970;DHT22;7057;49.984;8.404;2022-10-22T14:07:18;20.20;99.90
13970;DHT22;7057;49.984;8.404;2022-10-22T14:09:45;20.00;99.90
13970;DHT22;7057;49.984;8.404;2022-10-22T14:12:14;20.10;99.90
13970;DHT22;7057;49.984;8.404;2022-10-22T14:14:42;19.90;99.90
13970;DHT22;7057;49.984;8.404;2022-10-22T14:17:11;19.80;99.90
13970;DHT22;7057;49.984;8.404;2022-10-22T14:19:42;19.70;99.90
13970;DHT22;7057;49.984;8.404;2022-10-22T14:22:14;19.60;99.90
13970;DHT22;7057;49.984;8.404;2022-10-22T14:24:42;19.60;99.90
13970;DHT22;7057;49.984;8.404;2022-10-22T14:27:11;19.60;99.90
13970;DHT22;7057;49.984;8.404;2022-10-22T14:29:39;19.60;99.90
13970;DHT22;7057;49.984;8.404;2022-10-22T14:32:11;19.60;99.90
13970;DHT22;7057;49.984;8.404;2022-10-22T14:34:38;19.60;99.90
13970;DHT22;7057;49.984;8.404;2022-10-22T14:37:15;19.60;99.90
13970;DHT22;7057;49.984;8.404;2022-10-22T14:39:44;19.60;99.90
13970;DHT22;7057;49.984;8.404;2022-10-22T14:42:17;19.60;99.90
13970;DHT22;7057;49.984;8.404;2022-10-22T14:44:44;19.50;99.90
13970;DHT22;7057;49.984;8.404;2022-10-22T14:47:12;19.60;99.90
13970;DHT22;7057;49.984;8.404;2022-10-22T14:49:39;19.70;99.90
13970;DHT22;7057;49.984;8.404;2022-10-22T14:52:06;19.80;99.90
13970;DHT22;7057;49.984;8.404;2022-10-22T14:54:34;20.00;99.90
13970;DHT22;7057;49.984;8.404;2022-10-22T14:57:03;20.10;99.90
13970;DHT22;7057;49.984;8.404;2022-10-22T14:59:30;20.10;99.90
13970;DHT22;7057;49.984;8.404;2022-10-22T15:01:57;20.00;99.90
13970;DHT22;7057;49.984;8.404;2022-10-22T15:04:25;20.00;99.90
13970;DHT22;7057;49.984;8.404;2022-10-22T15:06:53;20.00;99.90
13970;DHT22;7057;49.984;8.404;2022-10-22T15:09:22;19.90;99.90
13970;DHT22;7057;49.984;8.404;2022-10-22T15:11:50;19.90;99.90
13970;DHT22;7057;49.984;8.404;2022-10-22T15:14:18;19.80;99.90
13970;DHT22;7057;49.984;8.404;2022-10-22T15:16:45;19.70;99.90
13970;DHT22;7057;49.984;8.404;2022-10-22T15:19:12;19.60;99.90
13970;DHT22;7057;49.984;8.404;2022-10-22T15:21:39;19.60;99.90
13970;DHT22;7057;49.984;8.404;2022-10-22T15:24:07;19.50;99.90
13970;DHT22;7057;49.984;8.404;2022-10-22T15:26:34;19.50;99.90
13970;DHT22;7057;49.984;8.404;2022-10-22T15:29:04;19.50;99.90
13970;DHT22;7057;49.984;8.404;2022-10-22T15:31:42;19.40;99.90
13970;DHT22;7057;49.984;8.404;2022-10-22T15:34:10;19.40;99.90
13970;DHT22;7057;49.984;8.404;2022-10-22T15:36:37;19.30;99.90
13970;DHT22;7057;49.984;8.404;2022-10-22T15:39:06;19.20;99.90
13970;DHT22;7057;49.984;8.404;2022-10-22T15:41:34;19.20;99.90
13970;DHT22;7057;49.984;8.404;2022-10-22T15:44:03;19.10;99.90
13970;DHT22;7057;49.984;8.404;2022-10-22T15:46:31;19.20;99.90
13970;DHT22;7057;49.984;8.404;2022-10-22T15:48:58;19.20;99.90
13970;DHT22;7057;49.984;8.404;2022-10-22T15:51:26;19.10;99.90
13970;DHT22;7057;49.984;8.404;2022-10-22T15:53:54;19.00;99.90
13970;DHT22;7057;49.984;8.404;2022-10-22T15:56:23;18.90;99.90
13970;DHT22;7057;49.984;8.404;2022-10-22T15:58:54;18.80;99.90
13970;DHT22;7057;49.984;8.404;2022-10-22T16:01:24;18.70;99.90
13970;DHT22;7057;49.984;8.404;2022-10-22T16:03:52;18.60;99.90
13970;DHT22;7057;49.984;8.404;2022-10-22T16:06:25;18.60;99.90
13970;DHT22;7057;49.984;8.404;2022-10-22T16:08:53;18.50;99.90
13970;DHT22;7057;49.984;8.404;2022-10-22T16:11:22;18.40;99.90